»·PEaware :: N169BK KSMO-KSNA

N169BK :: KSMO-KSNA

FLIGHT INFORMATION

Flight Status: Arrived
Operator: Privately registered:
United States
More flights under this callsign
Pilot: Steve K. (28058)
Aircraft: CESSNA 172 SKYHAWK
(C172)
More flights by this aircraft type
Origin: KSMO Santa Monica Mun
United States
Destination: KSNA John Wayne-Orange Co
United States
More flights between these airports :: More routes between these airports
Route: SMO SMO125 V64 SLI
File this flight plan on PilotEdge
Remarks:
Altitude:
(Current/Filed)
4,000ft
Speed:
(Current/Filed)
120kts
Departed: 21-Nov-20 05:37 PM
Arrived: 21-Nov-20 06:39 PM
Distance/Time
Traveled:
35nm/1:02
Distance/Time
To Go:
Arrived

Flight Plot

Page will automatically refresh every two minutes.


Map Options




Map Legend


Flown Route
Filed Route
Departure Airport
Arrival Airport
Navaid (VOR, NDB)
Fix

Horizontal Profiles

Position Reports

Time Latitude Longitude Heading Altitude Ground
Speed
21-Nov-20 17:12 34.017594 -118.445208 330 179ft 0kts
21-Nov-20 17:13 34.017594 -118.445208 330 179ft 0kts
21-Nov-20 17:14 34.017594 -118.445208 330 179ft 0kts
21-Nov-20 17:15 34.017594 -118.445208 330 179ft 0kts
21-Nov-20 17:16 34.017594 -118.445208 330 179ft 0kts
21-Nov-20 17:17 34.017594 -118.445208 330 179ft 0kts
21-Nov-20 17:18 34.017594 -118.445208 330 179ft 0kts
21-Nov-20 17:19 34.017594 -118.445208 330 179ft 0kts
21-Nov-20 17:20 34.017594 -118.445208 330 179ft 0kts
21-Nov-20 17:21 34.017594 -118.445208 330 179ft 0kts
21-Nov-20 17:22 34.017594 -118.445208 330 179ft 0kts
21-Nov-20 17:23 34.017594 -118.445208 330 179ft 0kts
21-Nov-20 17:24 34.017594 -118.445208 330 179ft 0kts
21-Nov-20 17:25 34.017594 -118.445208 330 179ft 0kts
21-Nov-20 17:26 34.017594 -118.445208 330 179ft 0kts
21-Nov-20 17:27 34.017594 -118.445208 330 179ft 0kts
21-Nov-20 17:28 34.017594 -118.445208 330 179ft 0kts
21-Nov-20 17:29 34.017594 -118.445208 330 179ft 0kts
21-Nov-20 17:30 34.017644 -118.445070 11 179ft 11kts
21-Nov-20 17:31 34.018423 -118.444949 172 179ft 11kts
21-Nov-20 17:32 34.018341 -118.445030 337 179ft 0kts
21-Nov-20 17:33 34.018341 -118.445030 337 179ft 0kts
21-Nov-20 17:34 34.018873 -118.446801 286 179ft 0kts
21-Nov-20 17:35 34.018873 -118.446801 286 179ft 0kts
21-Nov-20 17:36 34.013979 -118.455078 247 454ft 62kts
21-Nov-20 17:37 33.999019 -118.471176 219 1171ft 85kts
21-Nov-20 17:38 33.990484 -118.496380 285 1999ft 81kts
21-Nov-20 17:52 34.017594 -118.445208 330 179ft 0kts
21-Nov-20 17:53 34.017594 -118.445208 330 179ft 0kts
21-Nov-20 17:54 34.017594 -118.445208 330 179ft 0kts
21-Nov-20 17:55 34.017594 -118.445208 330 179ft 0kts
21-Nov-20 17:56 34.017594 -118.445208 330 179ft 0kts
21-Nov-20 17:57 34.017594 -118.445208 330 179ft 0kts
21-Nov-20 17:58 34.018944 -118.445333 342 179ft 11kts
21-Nov-20 17:59 34.018905 -118.446812 277 179ft 0kts
21-Nov-20 18:00 34.018905 -118.446812 277 179ft 0kts
21-Nov-20 18:01 34.011444 -118.456189 218 404ft 86kts
21-Nov-20 18:02 33.992609 -118.476600 222 1309ft 95kts
21-Nov-20 18:03 33.984003 -118.505686 262 2206ft 97kts
21-Nov-20 18:04 33.980639 -118.537967 272 3108ft 97kts
21-Nov-20 18:04 33.996792 -118.541914 63 3844ft 96kts
21-Nov-20 18:06 34.001437 -118.498982 92 4000ft 130kts
21-Nov-20 18:07 33.982802 -118.467120 155 4000ft 131kts
21-Nov-20 18:07 33.955340 -118.451308 154 3999ft 131kts
21-Nov-20 18:09 33.916933 -118.428440 153 3999ft 132kts
21-Nov-20 18:09 33.889536 -118.412141 153 3999ft 132kts
21-Nov-20 18:11 33.851151 -118.389353 153 3999ft 132kts
21-Nov-20 18:11 33.823550 -118.373000 153 3999ft 132kts
21-Nov-20 18:12 33.793365 -118.347817 143 3999ft 132kts
21-Nov-20 18:13 33.771500 -118.314811 103 4000ft 132kts
21-Nov-20 18:14 33.762803 -118.271981 103 3999ft 132kts
21-Nov-20 18:15 33.754070 -118.229002 103 3999ft 132kts
21-Nov-20 18:16 33.745292 -118.185930 103 3999ft 132kts
21-Nov-20 18:17 33.736612 -118.143463 103 3999ft 132kts
21-Nov-20 18:18 33.738744 -118.102998 54 4000ft 132kts
21-Nov-20 18:19 33.759933 -118.068250 53 3999ft 132kts
21-Nov-20 18:20 33.780645 -118.034305 53 3999ft 132kts
21-Nov-20 18:21 33.801180 -118.000588 53 3999ft 132kts
21-Nov-20 18:22 33.821660 -117.966903 53 3999ft 132kts
21-Nov-20 18:23 33.842681 -117.932263 53 3999ft 132kts
21-Nov-20 18:24 33.863701 -117.897565 53 3999ft 132kts
21-Nov-20 18:25 33.885008 -117.862325 53 3999ft 132kts
21-Nov-20 18:26 33.906423 -117.826842 53 3999ft 132kts
21-Nov-20 18:27 33.914492 -117.786048 93 3999ft 132kts
21-Nov-20 18:28 33.907087 -117.744346 146 3992ft 132kts
21-Nov-20 18:29 33.870661 -117.750434 194 3496ft 128kts
21-Nov-20 18:30 33.840191 -117.765899 205 2997ft 106kts
21-Nov-20 18:31 33.815172 -117.781132 206 2919ft 101kts
21-Nov-20 18:32 33.790150 -117.796842 207 2627ft 109kts
21-Nov-20 18:33 33.768830 -117.810201 205 2149ft 71kts
21-Nov-20 18:34 33.749700 -117.821796 203 1539ft 78kts
21-Nov-20 18:35 33.730788 -117.833788 210 1209ft 77kts
21-Nov-20 18:36 33.712088 -117.846095 206 840ft 78kts
21-Nov-20 18:37 33.693202 -117.857782 206 362ft 76kts
21-Nov-20 18:38 33.676760 -117.868108 218 60ft 38kts
21-Nov-20 18:39 33.675877 -117.869756 299 60ft 2kts
21-Nov-20 18:40 33.676185 -117.870735 262 60ft 0kts
21-Nov-20 18:41 33.676185 -117.870735 262 60ft 0kts
21-Nov-20 18:42 33.676185 -117.870735 262 60ft 0kts
21-Nov-20 18:43 33.676185 -117.870735 262 60ft 0kts
21-Nov-20 18:44 33.676185 -117.870735 262 60ft 0kts
21-Nov-20 18:45 33.676185 -117.870735 262 60ft 0kts
21-Nov-20 18:46 33.676185 -117.870735 262 60ft 0kts
21-Nov-20 18:47 33.676185 -117.870735 262 60ft 0kts
21-Nov-20 18:48 33.676185 -117.870735 262 60ft 0kts
21-Nov-20 18:49 33.676185 -117.870735 262 60ft 0kts
21-Nov-20 18:50 33.676185 -117.870735 262 60ft 0kts
21-Nov-20 18:51 33.676185 -117.870735 262 60ft 0kts
21-Nov-20 18:52 33.676185 -117.870735 262 60ft 0kts

Navigation Log

Ident Type
Flight plan parsing failed, navigation log unavailable